sensor_id;sensor_type;location;lat;lon;timestamp;temperature;humidity
56771;DHT22;42641;59.794;17.616;2022-08-01T00:22:53;18.70;99.90
56771;DHT22;42641;59.794;17.616;2022-08-01T00:25:19;18.70;99.90
56771;DHT22;42641;59.794;17.616;2022-08-01T00:27:46;18.70;99.90
56771;DHT22;42641;59.794;17.616;2022-08-01T00:30:12;18.70;99.90
56771;DHT22;42641;59.794;17.616;2022-08-01T00:32:39;18.70;99.90
56771;DHT22;42641;59.794;17.616;2022-08-01T00:35:05;18.60;99.90
56771;DHT22;42641;59.794;17.616;2022-08-01T00:37:32;18.70;99.90
56771;DHT22;42641;59.794;17.616;2022-08-01T01:29:00;18.30;99.90
56771;DHT22;42641;59.794;17.616;2022-08-01T01:31:28;18.30;99.90
56771;DHT22;42641;59.794;17.616;2022-08-01T01:33:58;18.30;99.90
56771;DHT22;42641;59.794;17.616;2022-08-01T01:36:26;18.30;99.90
56771;DHT22;42641;59.794;17.616;2022-08-01T01:38:55;18.30;99.90
56771;DHT22;42641;59.794;17.616;2022-08-01T01:41:22;18.30;99.90
56771;DHT22;42641;59.794;17.616;2022-08-01T02:23:13;18.40;99.90
56771;DHT22;42641;59.794;17.616;2022-08-01T02:25:43;18.30;99.90
56771;DHT22;42641;59.794;17.616;2022-08-01T02:28:16;18.30;99.90
56771;DHT22;42641;59.794;17.616;2022-08-01T02:30:46;18.30;99.90
56771;DHT22;42641;59.794;17.616;2022-08-01T02:33:20;18.20;99.90
56771;DHT22;42641;59.794;17.616;2022-08-01T02:35:50;18.20;99.90
56771;DHT22;42641;59.794;17.616;2022-08-01T02:38:21;18.10;99.90
56771;DHT22;42641;59.794;17.616;2022-08-01T02:40:50;18.00;99.90
56771;DHT22;42641;59.794;17.616;2022-08-01T02:43:21;18.00;99.90
56771;DHT22;42641;59.794;17.616;2022-08-01T02:45:55;17.90;99.90
56771;DHT22;42641;59.794;17.616;2022-08-01T02:48:25;17.80;99.90
56771;DHT22;42641;59.794;17.616;2022-08-01T02:50:55;17.70;99.90
56771;DHT22;42641;59.794;17.616;2022-08-01T02:53:24;17.70;99.90
56771;DHT22;42641;59.794;17.616;2022-08-01T02:55:51;17.70;99.90
56771;DHT22;42641;59.794;17.616;2022-08-01T02:58:20;17.60;99.90
56771;DHT22;42641;59.794;17.616;2022-08-01T03:00:51;17.60;99.90
56771;DHT22;42641;59.794;17.616;2022-08-01T03:03:18;17.50;99.90
56771;DHT22;42641;59.794;17.616;2022-08-01T03:05:45;17.50;99.90
56771;DHT22;42641;59.794;17.616;2022-08-01T03:08:15;17.50;99.90
56771;DHT22;42641;59.794;17.616;2022-08-01T03:10:44;17.50;99.90
56771;DHT22;42641;59.794;17.616;2022-08-01T03:13:13;17.50;99.90
56771;DHT22;42641;59.794;17.616;2022-08-01T03:15:42;17.40;99.90
56771;DHT22;42641;59.794;17.616;2022-08-01T03:18:10;17.40;99.90
56771;DHT22;42641;59.794;17.616;2022-08-01T03:20:38;17.40;99.90
56771;DHT22;42641;59.794;17.616;2022-08-01T03:23:07;17.30;99.90
56771;DHT22;42641;59.794;17.616;2022-08-01T03:25:38;17.30;99.90
56771;DHT22;42641;59.794;17.616;2022-08-01T03:28:10;17.30;99.90
56771;DHT22;42641;59.794;17.616;2022-08-01T03:30:39;17.30;99.90
56771;DHT22;42641;59.794;17.616;2022-08-01T03:33:06;17.30;99.90
56771;DHT22;42641;59.794;17.616;2022-08-01T03:35:35;17.30;99.90
56771;DHT22;42641;59.794;17.616;2022-08-01T03:38:03;17.40;99.90
56771;DHT22;42641;59.794;17.616;2022-08-01T03:40:39;17.30;99.90
56771;DHT22;42641;59.794;17.616;2022-08-01T03:44:13;17.30;99.90
56771;DHT22;42641;59.794;17.616;2022-08-01T04:21:54;17.70;99.90
56771;DHT22;42641;59.794;17.616;2022-08-01T04:24:22;17.90;99.90
56771;DHT22;42641;59.794;17.616;2022-08-01T04:26:50;17.90;99.90
56771;DHT22;42641;59.794;17.616;2022-08-01T04:29:19;18.00;99.90
56771;DHT22;42641;59.794;17.616;2022-08-01T04:31:48;18.00;99.90
56771;DHT22;42641;59.794;17.616;2022-08-01T04:34:19;18.10;99.90
56771;DHT22;42641;59.794;17.616;2022-08-01T04:36:48;18.20;99.90
56771;DHT22;42641;59.794;17.616;2022-08-01T04:39:16;18.30;99.90
56771;DHT22;42641;59.794;17.616;2022-08-01T04:41:45;18.40;99.90
56771;DHT22;42641;59.794;17.616;2022-08-01T04:44:13;18.50;99.90
56771;DHT22;42641;59.794;17.616;2022-08-01T04:46:40;18.60;99.90
56771;DHT22;42641;59.794;17.616;2022-08-01T04:49:08;18.70;99.90
56771;DHT22;42641;59.794;17.616;2022-08-01T04:51:35;18.80;99.90
56771;DHT22;42641;59.794;17.616;2022-08-01T04:54:01;18.80;99.90
56771;DHT22;42641;59.794;17.616;2022-08-01T04:56:28;18.90;99.90
56771;DHT22;42641;59.794;17.616;2022-08-01T04:58:54;19.00;99.90
56771;DHT22;42641;59.794;17.616;2022-08-01T05:01:39;19.10;99.90
56771;DHT22;42641;59.794;17.616;2022-08-01T05:04:05;19.10;99.90
56771;DHT22;42641;59.794;17.616;2022-08-01T05:06:32;19.20;99.90
56771;DHT22;42641;59.794;17.616;2022-08-01T05:08:58;19.30;99.90
56771;DHT22;42641;59.794;17.616;2022-08-01T05:11:24;19.50;99.90
56771;DHT22;42641;59.794;17.616;2022-08-01T05:13:51;19.50;99.90
56771;DHT22;42641;59.794;17.616;2022-08-01T05:16:17;19.60;99.90
56771;DHT22;42641;59.794;17.616;2022-08-01T05:18:44;19.70;99.90
56771;DHT22;42641;59.794;17.616;2022-08-01T05:21:10;19.70;99.90
56771;DHT22;42641;59.794;17.616;2022-08-01T05:23:37;19.80;99.90
56771;DHT22;42641;59.794;17.616;2022-08-01T05:26:04;19.80;99.90
56771;DHT22;42641;59.794;17.616;2022-08-01T05:28:30;20.00;99.90
56771;DHT22;42641;59.794;17.616;2022-08-01T05:30:57;20.00;99.90
56771;DHT22;42641;59.794;17.616;2022-08-01T05:33:23;20.20;99.90
56771;DHT22;42641;59.794;17.616;2022-08-01T05:35:49;20.40;99.90
56771;DHT22;42641;59.794;17.616;2022-08-01T05:38:16;20.50;99.90
56771;DHT22;42641;59.794;17.616;2022-08-01T05:40:42;20.50;99.90
56771;DHT22;42641;59.794;17.616;2022-08-01T05:43:08;20.60;99.90
56771;DHT22;42641;59.794;17.616;2022-08-01T05:45:35;20.70;99.90
56771;DHT22;42641;59.794;17.616;2022-08-01T05:48:01;20.80;99.90
56771;DHT22;42641;59.794;17.616;2022-08-01T05:50:28;20.80;99.90
56771;DHT22;42641;59.794;17.616;2022-08-01T05:52:54;20.70;99.90
56771;DHT22;42641;59.794;17.616;2022-08-01T05:55:20;20.60;99.90
56771;DHT22;42641;59.794;17.616;2022-08-01T05:57:47;20.60;99.90
56771;DHT22;42641;59.794;17.616;2022-08-01T06:00:13;20.60;99.90
56771;DHT22;42641;59.794;17.616;2022-08-01T06:02:44;20.70;99.90
56771;DHT22;42641;59.794;17.616;2022-08-01T06:05:10;20.70;99.90
56771;DHT22;42641;59.794;17.616;2022-08-01T06:07:37;20.70;99.90
56771;DHT22;42641;59.794;17.616;2022-08-01T06:10:06;20.80;99.90
56771;DHT22;42641;59.794;17.616;2022-08-01T06:12:33;20.80;99.90
56771;DHT22;42641;59.794;17.616;2022-08-01T06:15:00;20.80;99.90
56771;DHT22;42641;59.794;17.616;2022-08-01T06:17:26;20.80;99.90
56771;DHT22;42641;59.794;17.616;2022-08-01T06:19:53;20.80;99.90
56771;DHT22;42641;59.794;17.616;2022-08-01T06:22:19;20.90;99.90
56771;DHT22;42641;59.794;17.616;2022-08-01T06:24:45;20.90;99.90
56771;DHT22;42641;59.794;17.616;2022-08-01T06:27:12;20.90;99.90
56771;DHT22;42641;59.794;17.616;2022-08-01T06:29:38;20.90;99.60
56771;DHT22;42641;59.794;17.616;2022-08-01T06:32:05;20.90;99.90
56771;DHT22;42641;59.794;17.616;2022-08-01T06:34:32;21.00;99.90
56771;DHT22;42641;59.794;17.616;2022-08-01T06:36:58;21.00;99.80
56771;DHT22;42641;59.794;17.616;2022-08-01T06:39:25;21.00;99.10
56771;DHT22;42641;59.794;17.616;2022-08-01T06:41:52;21.10;99.90
56771;DHT22;42641;59.794;17.616;2022-08-01T06:44:18;21.10;99.80
56771;DHT22;42641;59.794;17.616;2022-08-01T06:46:44;21.10;99.30
56771;DHT22;42641;59.794;17.616;2022-08-01T06:49:11;21.20;99.70
56771;DHT22;42641;59.794;17.616;2022-08-01T06:51:37;21.20;99.90
56771;DHT22;42641;59.794;17.616;2022-08-01T06:54:04;21.20;99.20
56771;DHT22;42641;59.794;17.616;2022-08-01T06:56:30;21.10;99.30
56771;DHT22;42641;59.794;17.616;2022-08-01T06:58:56;21.10;97.90
56771;DHT22;42641;59.794;17.616;2022-08-01T07:01:29;21.10;98.60
56771;DHT22;42641;59.794;17.616;2022-08-01T07:03:56;21.10;99.20
56771;DHT22;42641;59.794;17.616;2022-08-01T07:06:24;21.20;99.00
56771;DHT22;42641;59.794;17.616;2022-08-01T07:08:52;21.20;99.40
56771;DHT22;42641;59.794;17.616;2022-08-01T07:11:19;21.30;99.70
56771;DHT22;42641;59.794;17.616;2022-08-01T07:13:46;21.30;99.00
56771;DHT22;42641;59.794;17.616;2022-08-01T07:16:13;21.30;98.40
56771;DHT22;42641;59.794;17.616;2022-08-01T07:18:40;21.30;98.10
56771;DHT22;42641;59.794;17.616;2022-08-01T07:21:07;21.20;98.50
56771;DHT22;42641;59.794;17.616;2022-08-01T07:23:34;21.20;98.10
56771;DHT22;42641;59.794;17.616;2022-08-01T07:26:02;21.20;98.90
56771;DHT22;42641;59.794;17.616;2022-08-01T07:28:29;21.20;99.10
56771;DHT22;42641;59.794;17.616;2022-08-01T07:30:55;21.30;98.80
56771;DHT22;42641;59.794;17.616;2022-08-01T07:33:22;21.30;99.00
56771;DHT22;42641;59.794;17.616;2022-08-01T07:35:48;21.30;98.20
56771;DHT22;42641;59.794;17.616;2022-08-01T07:38:15;21.40;98.70
56771;DHT22;42641;59.794;17.616;2022-08-01T07:40:43;21.50;98.80
56771;DHT22;42641;59.794;17.616;2022-08-01T07:43:10;21.60;98.20
56771;DHT22;42641;59.794;17.616;2022-08-01T07:45:36;21.60;98.60
56771;DHT22;42641;59.794;17.616;2022-08-01T07:48:06;21.60;98.40
56771;DHT22;42641;59.794;17.616;2022-08-01T07:50:33;21.60;97.80
56771;DHT22;42641;59.794;17.616;2022-08-01T07:53:00;21.70;98.50
56771;DHT22;42641;59.794;17.616;2022-08-01T07:55:26;21.70;98.80
56771;DHT22;42641;59.794;17.616;2022-08-01T07:57:53;21.80;98.90
56771;DHT22;42641;59.794;17.616;2022-08-01T08:00:19;21.90;98.60
56771;DHT22;42641;59.794;17.616;2022-08-01T08:02:45;22.00;98.60
56771;DHT22;42641;59.794;17.616;2022-08-01T08:05:12;22.20;98.40
56771;DHT22;42641;59.794;17.616;2022-08-01T08:07:38;22.20;98.80
56771;DHT22;42641;59.794;17.616;2022-08-01T08:10:05;22.20;98.00
56771;DHT22;42641;59.794;17.616;2022-08-01T08:12:32;22.20;98.30
56771;DHT22;42641;59.794;17.616;2022-08-01T08:14:58;22.10;98.20
56771;DHT22;42641;59.794;17.616;2022-08-01T08:17:26;22.10;98.20
56771;DHT22;42641;59.794;17.616;2022-08-01T08:19:53;22.10;97.90
56771;DHT22;42641;59.794;17.616;2022-08-01T08:22:19;22.20;98.40
56771;DHT22;42641;59.794;17.616;2022-08-01T08:24:46;22.50;98.90
56771;DHT22;42641;59.794;17.616;2022-08-01T08:27:12;22.70;97.80
56771;DHT22;42641;59.794;17.616;2022-08-01T08:29:39;22.90;98.10
56771;DHT22;42641;59.794;17.616;2022-08-01T08:32:06;23.10;98.20
56771;DHT22;42641;59.794;17.616;2022-08-01T08:34:32;23.20;96.80
56771;DHT22;42641;59.794;17.616;2022-08-01T08:36:59;23.20;96.60
56771;DHT22;42641;59.794;17.616;2022-08-01T08:39:26;23.30;97.10
56771;DHT22;42641;59.794;17.616;2022-08-01T08:41:52;23.40;96.80
56771;DHT22;42641;59.794;17.616;2022-08-01T08:44:19;23.50;96.80
56771;DHT22;42641;59.794;17.616;2022-08-01T08:46:50;23.60;96.00
56771;DHT22;42641;59.794;17.616;2022-08-01T08:49:25;23.70;95.70
56771;DHT22;42641;59.794;17.616;2022-08-01T08:51:52;23.90;94.60
56771;DHT22;42641;59.794;17.616;2022-08-01T08:54:21;24.00;94.20
56771;DHT22;42641;59.794;17.616;2022-08-01T08:56:51;24.30;95.30
56771;DHT22;42641;59.794;17.616;2022-08-01T08:59:19;24.30;94.90
56771;DHT22;42641;59.794;17.616;2022-08-01T09:01:47;24.20;93.20
56771;DHT22;42641;59.794;17.616;2022-08-01T09:04:13;24.10;93.60
56771;DHT22;42641;59.794;17.616;2022-08-01T09:06:40;24.00;93.60
56771;DHT22;42641;59.794;17.616;2022-08-01T09:09:08;24.10;93.20
56771;DHT22;42641;59.794;17.616;2022-08-01T09:11:35;24.20;94.40
56771;DHT22;42641;59.794;17.616;2022-08-01T09:16:30;24.10;93.30
56771;DHT22;42641;59.794;17.616;2022-08-01T09:19:17;24.20;93.60
56771;DHT22;42641;59.794;17.616;2022-08-01T09:21:59;24.30;93.70
56771;DHT22;42641;59.794;17.616;2022-08-01T09:24:26;24.40;93.70
56771;DHT22;42641;59.794;17.616;2022-08-01T09:26:54;24.40;92.70
56771;DHT22;42641;59.794;17.616;2022-08-01T09:29:26;24.40;92.80
56771;DHT22;42641;59.794;17.616;2022-08-01T09:31:53;24.60;93.20
56771;DHT22;42641;59.794;17.616;2022-08-01T09:34:28;24.70;92.20
56771;DHT22;42641;59.794;17.616;2022-08-01T09:36:58;24.80;92.70
56771;DHT22;42641;59.794;17.616;2022-08-01T09:39:35;24.90;92.40
56771;DHT22;42641;59.794;17.616;2022-08-01T09:42:22;25.20;91.40
56771;DHT22;42641;59.794;17.616;2022-08-01T09:44:49;25.40;91.70
56771;DHT22;42641;59.794;17.616;2022-08-01T09:47:16;25.50;91.70
56771;DHT22;42641;59.794;17.616;2022-08-01T09:49:44;25.50;91.30
56771;DHT22;42641;59.794;17.616;2022-08-01T09:52:18;25.30;91.70
56771;DHT22;42641;59.794;17.616;2022-08-01T09:55:11;25.10;92.20
56771;DHT22;42641;59.794;17.616;2022-08-01T09:57:38;25.00;92.60
56771;DHT22;42641;59.794;17.616;2022-08-01T10:00:05;24.90;92.10
56771;DHT22;42641;59.794;17.616;2022-08-01T10:02:40;24.80;92.40
56771;DHT22;42641;59.794;17.616;2022-08-01T10:05:09;24.90;92.50
56771;DHT22;42641;59.794;17.616;2022-08-01T10:07:54;24.90;92.20
56771;DHT22;42641;59.794;17.616;2022-08-01T10:10:21;24.90;92.30
56771;DHT22;42641;59.794;17.616;2022-08-01T10:12:48;25.10;92.30
56771;DHT22;42641;59.794;17.616;2022-08-01T10:15:16;25.40;92.40
56771;DHT22;42641;59.794;17.616;2022-08-01T10:18:04;25.80;91.50
56771;DHT22;42641;59.794;17.616;2022-08-01T10:20:32;26.00;90.80
56771;DHT22;42641;59.794;17.616;2022-08-01T10:23:02;26.20;91.20
56771;DHT22;42641;59.794;17.616;2022-08-01T10:25:34;26.30;90.60
56771;DHT22;42641;59.794;17.616;2022-08-01T10:28:08;26.20;90.30
56771;DHT22;42641;59.794;17.616;2022-08-01T10:30:36;26.10;91.30
56771;DHT22;42641;59.794;17.616;2022-08-01T10:33:04;26.00;91.60
56771;DHT22;42641;59.794;17.616;2022-08-01T10:35:30;26.00;90.70
56771;DHT22;42641;59.794;17.616;2022-08-01T10:37:57;26.10;90.80
56771;DHT22;42641;59.794;17.616;2022-08-01T10:40:24;26.20;90.80
56771;DHT22;42641;59.794;17.616;2022-08-01T10:42:51;26.40;91.20
56771;DHT22;42641;59.794;17.616;2022-08-01T10:45:18;26.40;86.70
56771;DHT22;42641;59.794;17.616;2022-08-01T10:47:53;26.30;87.40
56771;DHT22;42641;59.794;17.616;2022-08-01T10:50:33;26.40;90.10
56771;DHT22;42641;59.794;17.616;2022-08-01T10:55:58;26.70;86.40
56771;DHT22;42641;59.794;17.616;2022-08-01T10:58:35;26.60;86.10
56771;DHT22;42641;59.794;17.616;2022-08-01T11:01:30;26.60;86.60
56771;DHT22;42641;59.794;17.616;2022-08-01T11:09:02;26.60;84.90
56771;DHT22;42641;59.794;17.616;2022-08-01T11:11:29;26.40;82.60
56771;DHT22;42641;59.794;17.616;2022-08-01T11:14:05;26.30;82.20
56771;DHT22;42641;59.794;17.616;2022-08-01T11:16:40;26.20;81.80
56771;DHT22;42641;59.794;17.616;2022-08-01T11:19:07;26.40;83.60
56771;DHT22;42641;59.794;17.616;2022-08-01T11:27:27;28.60;81.90
56771;DHT22;42641;59.794;17.616;2022-08-01T11:32:55;29.40;77.50
56771;DHT22;42641;59.794;17.616;2022-08-01T11:35:23;29.20;74.20
56771;DHT22;42641;59.794;17.616;2022-08-01T11:37:55;29.40;73.00
56771;DHT22;42641;59.794;17.616;2022-08-01T11:40:27;29.60;73.50
56771;DHT22;42641;59.794;17.616;2022-08-01T11:45:53;30.10;71.00
56771;DHT22;42641;59.794;17.616;2022-08-01T11:48:27;30.00;70.70
56771;DHT22;42641;59.794;17.616;2022-08-01T11:50:55;29.40;70.50
56771;DHT22;42641;59.794;17.616;2022-08-01T11:53:22;28.70;70.80
56771;DHT22;42641;59.794;17.616;2022-08-01T11:55:50;28.00;70.10
56771;DHT22;42641;59.794;17.616;2022-08-01T11:58:25;27.60;74.00
56771;DHT22;42641;59.794;17.616;2022-08-01T12:00:56;27.30;75.80
56771;DHT22;42641;59.794;17.616;2022-08-01T12:03:29;26.90;73.40
56771;DHT22;42641;59.794;17.616;2022-08-01T12:05:56;26.50;73.00
56771;DHT22;42641;59.794;17.616;2022-08-01T12:08:26;26.30;78.20
56771;DHT22;42641;59.794;17.616;2022-08-01T12:10:53;26.30;74.70
56771;DHT22;42641;59.794;17.616;2022-08-01T12:13:21;26.10;75.90
56771;DHT22;42641;59.794;17.616;2022-08-01T12:15:48;25.90;74.80
56771;DHT22;42641;59.794;17.616;2022-08-01T12:18:16;25.80;74.70
56771;DHT22;42641;59.794;17.616;2022-08-01T12:20:44;25.60;74.60
56771;DHT22;42641;59.794;17.616;2022-08-01T12:23:14;25.60;76.00
56771;DHT22;42641;59.794;17.616;2022-08-01T12:25:41;25.50;77.70
56771;DHT22;42641;59.794;17.616;2022-08-01T12:28:11;25.50;77.20
56771;DHT22;42641;59.794;17.616;2022-08-01T12:30:40;25.40;76.10
56771;DHT22;42641;59.794;17.616;2022-08-01T12:33:09;25.20;75.10
56771;DHT22;42641;59.794;17.616;2022-08-01T12:35:37;25.00;77.00
56771;DHT22;42641;59.794;17.616;2022-08-01T12:38:14;24.90;76.90
56771;DHT22;42641;59.794;17.616;2022-08-01T12:40:42;24.70;77.70
56771;DHT22;42641;59.794;17.616;2022-08-01T12:43:09;24.60;79.10
56771;DHT22;42641;59.794;17.616;2022-08-01T12:45:46;24.50;78.50
56771;DHT22;42641;59.794;17.616;2022-08-01T12:48:16;24.60;81.00
56771;DHT22;42641;59.794;17.616;2022-08-01T12:50:45;24.70;79.50
56771;DHT22;42641;59.794;17.616;2022-08-01T12:53:12;24.70;81.30
56771;DHT22;42641;59.794;17.616;2022-08-01T12:55:50;24.70;81.00
56771;DHT22;42641;59.794;17.616;2022-08-01T12:58:17;24.80;81.00
56771;DHT22;42641;59.794;17.616;2022-08-01T13:00:47;24.60;80.60
56771;DHT22;42641;59.794;17.616;2022-08-01T13:03:16;24.40;86.50
56771;DHT22;42641;59.794;17.616;2022-08-01T13:05:56;24.30;80.60
56771;DHT22;42641;59.794;17.616;2022-08-01T13:08:29;24.30;84.30
56771;DHT22;42641;59.794;17.616;2022-08-01T13:11:03;24.40;80.70
56771;DHT22;42641;59.794;17.616;2022-08-01T13:13:50;24.60;81.50
56771;DHT22;42641;59.794;17.616;2022-08-01T13:16:20;24.80;82.10
56771;DHT22;42641;59.794;17.616;2022-08-01T13:18:54;25.00;86.80
56771;DHT22;42641;59.794;17.616;2022-08-01T13:21:27;25.00;86.80
56771;DHT22;42641;59.794;17.616;2022-08-01T13:26:51;25.20;84.10
56771;DHT22;42641;59.794;17.616;2022-08-01T13:29:20;25.40;84.60
56771;DHT22;42641;59.794;17.616;2022-08-01T13:31:47;25.60;82.80
56771;DHT22;42641;59.794;17.616;2022-08-01T13:34:13;26.20;83.80
56771;DHT22;42641;59.794;17.616;2022-08-01T13:36:40;26.50;80.90
56771;DHT22;42641;59.794;17.616;2022-08-01T13:39:07;26.90;81.00
56771;DHT22;42641;59.794;17.616;2022-08-01T13:41:52;27.40;78.40
56771;DHT22;42641;59.794;17.616;2022-08-01T13:44:19;27.80;74.80
56771;DHT22;42641;59.794;17.616;2022-08-01T13:46:45;28.00;72.70
56771;DHT22;42641;59.794;17.616;2022-08-01T13:49:15;28.20;71.50
56771;DHT22;42641;59.794;17.616;2022-08-01T13:51:42;28.90;69.30
56771;DHT22;42641;59.794;17.616;2022-08-01T13:54:08;28.90;71.50
56771;DHT22;42641;59.794;17.616;2022-08-01T13:56:35;28.50;71.70
56771;DHT22;42641;59.794;17.616;2022-08-01T13:59:02;28.00;72.20
56771;DHT22;42641;59.794;17.616;2022-08-01T14:01:29;27.70;76.50
56771;DHT22;42641;59.794;17.616;2022-08-01T14:03:55;27.20;78.40
56771;DHT22;42641;59.794;17.616;2022-08-01T14:06:21;26.70;78.50
56771;DHT22;42641;59.794;17.616;2022-08-01T14:08:49;26.20;79.80
56771;DHT22;42641;59.794;17.616;2022-08-01T14:11:16;25.90;82.00
56771;DHT22;42641;59.794;17.616;2022-08-01T14:13:43;25.70;82.70
56771;DHT22;42641;59.794;17.616;2022-08-01T14:16:09;25.50;82.70
56771;DHT22;42641;59.794;17.616;2022-08-01T14:18:35;25.50;83.40
56771;DHT22;42641;59.794;17.616;2022-08-01T14:21:02;25.60;84.20
56771;DHT22;42641;59.794;17.616;2022-08-01T14:23:28;25.60;84.20
56771;DHT22;42641;59.794;17.616;2022-08-01T14:25:55;25.50;84.80
56771;DHT22;42641;59.794;17.616;2022-08-01T14:28:21;25.50;85.50
56771;DHT22;42641;59.794;17.616;2022-08-01T14:30:47;25.40;84.70
56771;DHT22;42641;59.794;17.616;2022-08-01T14:33:14;25.30;85.60
56771;DHT22;42641;59.794;17.616;2022-08-01T14:35:41;25.30;88.10
56771;DHT22;42641;59.794;17.616;2022-08-01T14:38:07;25.40;86.70
56771;DHT22;42641;59.794;17.616;2022-08-01T14:40:34;25.50;85.40
56771;DHT22;42641;59.794;17.616;2022-08-01T14:43:01;25.60;84.90
56771;DHT22;42641;59.794;17.616;2022-08-01T14:45:28;25.70;85.00
56771;DHT22;42641;59.794;17.616;2022-08-01T14:47:55;25.70;85.50
56771;DHT22;42641;59.794;17.616;2022-08-01T14:50:21;25.70;85.00
56771;DHT22;42641;59.794;17.616;2022-08-01T14:52:49;25.70;83.50
56771;DHT22;42641;59.794;17.616;2022-08-01T14:55:16;25.80;84.30
56771;DHT22;42641;59.794;17.616;2022-08-01T14:57:42;25.90;83.20
56771;DHT22;42641;59.794;17.616;2022-08-01T15:00:09;26.00;83.00
56771;DHT22;42641;59.794;17.616;2022-08-01T15:02:39;25.80;87.20
56771;DHT22;42641;59.794;17.616;2022-08-01T15:05:07;25.60;85.60
56771;DHT22;42641;59.794;17.616;2022-08-01T15:07:34;25.40;84.80
56771;DHT22;42641;59.794;17.616;2022-08-01T15:10:00;25.30;84.70
56771;DHT22;42641;59.794;17.616;2022-08-01T15:12:27;25.20;85.90
56771;DHT22;42641;59.794;17.616;2022-08-01T15:14:53;25.00;85.10
56771;DHT22;42641;59.794;17.616;2022-08-01T15:17:25;24.80;86.70
56771;DHT22;42641;59.794;17.616;2022-08-01T15:19:56;24.60;86.90
56771;DHT22;42641;59.794;17.616;2022-08-01T15:22:23;24.50;88.10
56771;DHT22;42641;59.794;17.616;2022-08-01T15:24:51;24.50;87.90
56771;DHT22;42641;59.794;17.616;2022-08-01T15:27:18;24.60;88.00
56771;DHT22;42641;59.794;17.616;2022-08-01T15:29:45;24.40;86.90
56771;DHT22;42641;59.794;17.616;2022-08-01T15:32:11;24.40;88.10
56771;DHT22;42641;59.794;17.616;2022-08-01T15:34:38;24.40;89.00
56771;DHT22;42641;59.794;17.616;2022-08-01T15:37:06;24.40;89.50
56771;DHT22;42641;59.794;17.616;2022-08-01T15:39:33;24.30;88.80
56771;DHT22;42641;59.794;17.616;2022-08-01T15:42:03;24.20;87.70
56771;DHT22;42641;59.794;17.616;2022-08-01T15:44:31;24.30;88.30
56771;DHT22;42641;59.794;17.616;2022-08-01T15:46:57;24.30;90.20
56771;DHT22;42641;59.794;17.616;2022-08-01T15:49:23;24.20;89.20
56771;DHT22;42641;59.794;17.616;2022-08-01T15:51:50;24.60;91.60
56771;DHT22;42641;59.794;17.616;2022-08-01T15:54:17;25.50;89.90
56771;DHT22;42641;59.794;17.616;2022-08-01T15:56:44;26.90;82.50
56771;DHT22;42641;59.794;17.616;2022-08-01T15:59:10;27.60;81.30
56771;DHT22;42641;59.794;17.616;2022-08-01T16:01:37;28.30;80.70
56771;DHT22;42641;59.794;17.616;2022-08-01T16:04:04;29.00;76.70
56771;DHT22;42641;59.794;17.616;2022-08-01T16:06:30;29.30;76.20
56771;DHT22;42641;59.794;17.616;2022-08-01T16:08:57;29.50;75.20
56771;DHT22;42641;59.794;17.616;2022-08-01T16:11:23;29.60;73.90
56771;DHT22;42641;59.794;17.616;2022-08-01T16:13:56;29.40;73.20
56771;DHT22;42641;59.794;17.616;2022-08-01T16:16:23;28.90;74.90
56771;DHT22;42641;59.794;17.616;2022-08-01T16:18:49;28.10;76.00
56771;DHT22;42641;59.794;17.616;2022-08-01T16:21:16;27.70;79.90
56771;DHT22;42641;59.794;17.616;2022-08-01T16:23:43;27.50;81.70
56771;DHT22;42641;59.794;17.616;2022-08-01T16:26:11;27.40;79.70
56771;DHT22;42641;59.794;17.616;2022-08-01T16:28:38;27.30;81.50
56771;DHT22;42641;59.794;17.616;2022-08-01T16:31:04;27.20;80.70
56771;DHT22;42641;59.794;17.616;2022-08-01T16:33:31;27.20;80.50
56771;DHT22;42641;59.794;17.616;2022-08-01T16:35:59;27.10;80.10
56771;DHT22;42641;59.794;17.616;2022-08-01T16:38:26;26.90;80.40
56771;DHT22;42641;59.794;17.616;2022-08-01T16:40:53;26.70;81.20
56771;DHT22;42641;59.794;17.616;2022-08-01T16:43:21;26.60;81.00
56771;DHT22;42641;59.794;17.616;2022-08-01T16:45:47;26.60;83.00
56771;DHT22;42641;59.794;17.616;2022-08-01T16:48:15;26.80;82.70
56771;DHT22;42641;59.794;17.616;2022-08-01T16:50:43;26.90;81.60
56771;DHT22;42641;59.794;17.616;2022-08-01T16:53:09;26.90;79.70
56771;DHT22;42641;59.794;17.616;2022-08-01T16:55:36;26.80;81.20
56771;DHT22;42641;59.794;17.616;2022-08-01T16:58:02;26.70;81.80
56771;DHT22;42641;59.794;17.616;2022-08-01T17:00:29;26.70;83.30
56771;DHT22;42641;59.794;17.616;2022-08-01T17:02:55;26.70;82.60
56771;DHT22;42641;59.794;17.616;2022-08-01T17:05:21;26.60;84.30
56771;DHT22;42641;59.794;17.616;2022-08-01T17:07:48;26.20;82.80
56771;DHT22;42641;59.794;17.616;2022-08-01T17:10:14;25.90;83.60
56771;DHT22;42641;59.794;17.616;2022-08-01T17:12:40;25.60;84.70
56771;DHT22;42641;59.794;17.616;2022-08-01T17:15:07;25.30;86.30
56771;DHT22;42641;59.794;17.616;2022-08-01T17:17:34;25.10;87.80
56771;DHT22;42641;59.794;17.616;2022-08-01T17:20:00;24.80;88.50
56771;DHT22;42641;59.794;17.616;2022-08-01T17:22:27;24.70;89.00
56771;DHT22;42641;59.794;17.616;2022-08-01T17:24:53;24.50;89.00
56771;DHT22;42641;59.794;17.616;2022-08-01T17:27:19;24.40;89.50
56771;DHT22;42641;59.794;17.616;2022-08-01T17:29:46;24.20;90.60
56771;DHT22;42641;59.794;17.616;2022-08-01T17:32:13;24.10;90.70
56771;DHT22;42641;59.794;17.616;2022-08-01T17:34:40;24.10;90.70
56771;DHT22;42641;59.794;17.616;2022-08-01T17:37:07;24.10;91.20
56771;DHT22;42641;59.794;17.616;2022-08-01T17:39:33;24.10;91.10
56771;DHT22;42641;59.794;17.616;2022-08-01T17:42:00;24.20;90.20
56771;DHT22;42641;59.794;17.616;2022-08-01T17:44:26;24.20;90.50
56771;DHT22;42641;59.794;17.616;2022-08-01T17:46:52;24.20;90.80
56771;DHT22;42641;59.794;17.616;2022-08-01T17:49:19;24.20;90.80
56771;DHT22;42641;59.794;17.616;2022-08-01T17:51:47;24.30;91.10
56771;DHT22;42641;59.794;17.616;2022-08-01T17:54:14;24.20;91.70
56771;DHT22;42641;59.794;17.616;2022-08-01T17:56:40;24.10;91.80
56771;DHT22;42641;59.794;17.616;2022-08-01T17:59:06;24.00;91.80
56771;DHT22;42641;59.794;17.616;2022-08-01T18:01:33;23.90;92.00
56771;DHT22;42641;59.794;17.616;2022-08-01T18:04:02;23.70;92.40
56771;DHT22;42641;59.794;17.616;2022-08-01T18:06:28;23.50;92.20
56771;DHT22;42641;59.794;17.616;2022-08-01T18:08:55;23.40;92.30
56771;DHT22;42641;59.794;17.616;2022-08-01T18:11:21;23.40;92.40
56771;DHT22;42641;59.794;17.616;2022-08-01T18:13:48;23.40;92.90